Time;durP1;ratioP1;P1;durP2;ratioP2;P2;SDS_P1;SDS_P2;PMS_P1;PMS_P2;Temp;Humidity;BMP_temperature;BMP_pressure;BME280_temperature;BME280_humidity;BME280_pressure;Samples;Min_cycle;Max_cycle;Signal;HPM_P1;HPM_P2
2023/12/25 00:00:33;;;;;;;7.43;2.60;;;;;;;8.39;97.86;100693.06;5063304;28;20032;-66
2023/12/25 00:02:59;;;;;;;4.95;2.15;;;;;;;8.38;97.67;100681.03;5066267;28;20115;-66
2023/12/25 00:05:24;;;;;;;6.47;2.67;;;;;;;8.28;97.87;100681.75;5065675;28;20025;-67
2023/12/25 00:07:49;;;;;;;9.55;3.30;;;;;;;8.19;99.07;100682.47;5068085;28;20382;-67
2023/12/25 00:10:15;;;;;;;13.32;3.83;;;;;;;8.17;100.00;100681.78;5063072;28;20044;-66
2023/12/25 00:12:41;;;;;;;8.57;3.75;;;;;;;8.08;100.00;100679.91;5064864;28;20032;-67
2023/12/25 00:15:08;;;;;;;15.30;3.38;;;;;;;7.90;100.00;100682.22;5064742;28;20029;-67
2023/12/25 00:17:33;;;;;;;14.35;6.07;;;;;;;7.79;100.00;100690.03;5063987;28;20052;-66
2023/12/25 00:19:59;;;;;;;17.27;5.55;;;;;;;7.70;100.00;100672.59;5061949;28;20056;-67
2023/12/25 00:22:24;;;;;;;14.73;4.70;;;;;;;7.51;100.00;100668.06;5066131;28;20040;-66
2023/12/25 00:24:50;;;;;;;13.07;4.82;;;;;;;7.37;100.00;100673.47;5065350;28;20044;-66
2023/12/25 00:27:15;;;;;;;13.43;4.68;;;;;;;7.30;100.00;100672.31;5065424;28;20028;-67
2023/12/25 00:29:40;;;;;;;11.77;3.55;;;;;;;7.30;100.00;100667.13;5066505;28;20028;-67
2023/12/25 00:32:06;;;;;;;14.70;4.95;;;;;;;7.28;100.00;100669.81;5066334;28;20036;-66
2023/12/25 00:34:31;;;;;;;11.55;4.60;;;;;;;7.41;100.00;100672.31;5062267;28;20028;-66
2023/12/25 00:36:57;;;;;;;10.18;2.97;;;;;;;7.57;100.00;100672.72;5062483;28;20021;-66
2023/12/25 00:39:22;;;;;;;7.13;3.08;;;;;;;7.72;100.00;100678.50;5060186;28;20028;-66
2023/12/25 00:41:48;;;;;;;10.85;2.97;;;;;;;7.73;100.00;100687.91;5065454;28;20044;-66
2023/12/25 00:44:13;;;;;;;6.78;2.22;;;;;;;7.61;100.00;100689.69;5066811;28;20027;-66
2023/12/25 00:46:38;;;;;;;8.88;2.83;;;;;;;7.69;100.00;100683.91;5056574;28;20033;-66
2023/12/25 00:49:04;;;;;;;6.05;3.05;;;;;;;7.70;100.00;100690.75;5063834;28;20032;-67
2023/12/25 00:51:29;;;;;;;8.23;3.22;;;;;;;7.80;100.00;100685.66;5064757;28;20128;-66
2023/12/25 00:53:55;;;;;;;9.98;3.20;;;;;;;7.77;100.00;100689.31;5070103;28;20131;-67
2023/12/25 00:56:20;;;;;;;10.32;3.45;;;;;;;7.79;100.00;100684.03;5066017;28;20032;-66
2023/12/25 00:58:46;;;;;;;9.52;3.10;;;;;;;7.82;100.00;100673.41;5069546;28;20460;-66
2023/12/25 01:01:11;;;;;;;9.43;3.15;;;;;;;7.78;100.00;100672.00;5059705;28;20389;-66
2023/12/25 01:03:37;;;;;;;8.90;3.55;;;;;;;7.57;100.00;100674.50;5063419;28;20040;-66
2023/12/25 01:06:03;;;;;;;9.27;3.45;;;;;;;7.40;100.00;100672.41;5062211;28;20028;-66
2023/12/25 01:08:29;;;;;;;12.20;3.53;;;;;;;7.46;100.00;100672.75;5060768;28;20037;-66
2023/12/25 01:10:54;;;;;;;13.45;3.30;;;;;;;7.36;100.00;100666.66;5060461;28;20036;-66
2023/12/25 01:13:20;;;;;;;10.18;3.28;;;;;;;7.16;100.00;100664.75;5064400;28;20020;-66
2023/12/25 01:15:45;;;;;;;10.98;3.33;;;;;;;7.06;100.00;100669.84;5054796;28;20036;-66
2023/12/25 01:18:11;;;;;;;6.75;4.00;;;;;;;6.99;100.00;100679.00;5068304;28;20397;-66
2023/12/25 01:20:36;;;;;;;12.68;4.30;;;;;;;6.95;100.00;100670.66;5069995;28;20441;-66
2023/12/25 01:23:02;;;;;;;8.93;3.25;;;;;;;6.84;100.00;100674.97;5069109;28;20037;-66
2023/12/25 01:25:27;;;;;;;6.63;3.35;;;;;;;6.71;100.00;100685.44;5068276;28;20102;-66
2023/12/25 01:27:52;;;;;;;8.50;2.47;;;;;;;6.94;100.00;100687.13;5065892;28;20032;-65
2023/12/25 01:30:18;;;;;;;9.82;3.80;;;;;;;7.17;100.00;100689.72;5070462;28;20469;-66
2023/12/25 01:32:44;;;;;;;9.98;3.15;;;;;;;7.21;100.00;100689.38;5057662;28;20032;-66
2023/12/25 01:35:10;;;;;;;10.63;2.92;;;;;;;7.18;100.00;100691.38;5056786;28;20091;-66
2023/12/25 01:37:35;;;;;;;11.45;2.97;;;;;;;7.50;100.00;100689.72;5056524;28;20032;-66
2023/12/25 01:40:02;;;;;;;9.38;1.98;;;;;;;7.70;100.00;100690.75;5061154;28;20024;-66
2023/12/25 01:42:27;;;;;;;9.25;2.55;;;;;;;7.61;100.00;100688.88;5064944;28;20029;-66
2023/12/25 01:44:53;;;;;;;7.88;2.97;;;;;;;7.34;100.00;100686.66;5065181;28;20052;-66
2023/12/25 01:47:20;;;;;;;7.43;3.00;;;;;;;7.06;100.00;100698.34;5063423;28;20122;-66
2023/12/25 01:49:46;;;;;;;5.25;2.42;;;;;;;6.84;100.00;100686.16;5063080;28;20051;-66
2023/12/25 01:52:12;;;;;;;13.18;2.90;;;;;;;6.66;100.00;100685.78;5059992;28;20030;-66
2023/12/25 01:54:38;;;;;;;13.40;3.38;;;;;;;6.53;100.00;100681.63;5059084;28;20164;-65
2023/12/25 01:57:05;;;;;;;9.38;3.35;;;;;;;6.40;100.00;100683.47;5058736;28;20040;-66
2023/12/25 01:59:31;;;;;;;9.13;4.18;;;;;;;6.33;100.00;100678.75;5059463;28;20024;-66
2023/12/25 02:01:58;;;;;;;9.13;3.10;;;;;;;6.24;100.00;100681.16;5059889;28;20437;-66
2023/12/25 02:04:25;;;;;;;9.73;3.47;;;;;;;6.32;100.00;100695.19;5059447;28;20040;-65
2023/12/25 02:06:51;;;;;;;7.72;3.15;;;;;;;6.24;100.00;100689.75;5058874;28;20052;-66
2023/12/25 02:09:17;;;;;;;6.18;2.63;;;;;;;6.11;100.00;100686.44;5062760;28;20040;-66
2023/12/25 02:11:43;;;;;;;6.90;3.30;;;;;;;5.99;100.00;100687.28;5061420;28;20362;-66
2023/12/25 02:14:10;;;;;;;10.00;3.40;;;;;;;5.87;100.00;100688.13;5061172;28;20036;-66
2023/12/25 02:16:37;;;;;;;6.53;2.88;;;;;;;5.81;100.00;100691.16;5059453;28;20098;-66
2023/12/25 02:19:07;;;;;;;6.82;2.15;;;;;;;6.25;100.00;100688.81;5061031;28;20029;-66
2023/12/25 02:21:33;;;;;;;10.88;2.95;;;;;;;6.52;100.00;100700.69;5058346;28;20020;-66
2023/12/25 02:24:02;;;;;;;6.90;3.03;;;;;;;6.74;100.00;100699.91;5056808;28;20044;-65
2023/12/25 02:26:28;;;;;;;10.15;3.10;;;;;;;6.77;100.00;100695.34;5057954;28;20112;-66
2023/12/25 02:28:54;;;;;;;14.02;3.22;;;;;;;6.73;100.00;100699.09;5058318;28;20116;-65
2023/12/25 02:31:19;;;;;;;8.07;3.58;;;;;;;6.59;100.00;100701.91;5058098;28;20036;-65
2023/12/25 02:33:44;;;;;;;11.18;3.08;;;;;;;6.69;100.00;100705.44;5059739;28;20139;-65
2023/12/25 02:36:10;;;;;;;8.48;3.05;;;;;;;6.76;100.00;100690.25;5057548;28;20114;-66
2023/12/25 02:38:35;;;;;;;9.20;3.55;;;;;;;6.65;100.00;100688.47;5058742;28;20500;-66
2023/12/25 02:41:01;;;;;;;8.75;3.28;;;;;;;6.45;100.00;100700.31;5060212;28;20047;-65
2023/12/25 02:43:26;;;;;;;9.43;2.80;;;;;;;6.77;100.00;100704.88;5056806;28;20035;-65
2023/12/25 02:45:52;;;;;;;7.25;3.33;;;;;;;6.95;100.00;100700.91;5059998;28;20037;-65
2023/12/25 02:48:19;;;;;;;8.75;3.20;;;;;;;6.97;100.00;100699.84;5058770;28;20045;-66
2023/12/25 02:50:44;;;;;;;8.52;3.10;;;;;;;6.75;100.00;100710.16;5057806;28;20037;-66
2023/12/25 02:53:10;;;;;;;5.93;2.88;;;;;;;6.45;100.00;100715.03;5058480;28;20028;-66
2023/12/25 02:55:35;;;;;;;9.07;2.40;;;;;;;6.73;100.00;100703.44;5059690;28;20096;-65
2023/12/25 02:58:01;;;;;;;7.05;2.20;;;;;;;6.98;100.00;100698.91;5059516;28;20119;-65
2023/12/25 03:00:26;;;;;;;9.02;2.67;;;;;;;7.10;100.00;100704.09;5058543;28;20056;-65
2023/12/25 03:02:51;;;;;;;4.63;2.10;;;;;;;7.13;100.00;100707.28;5060494;28;20071;-66
2023/12/25 03:05:17;;;;;;;5.65;2.33;;;;;;;7.05;100.00;100716.59;5068513;28;20045;-66
2023/12/25 03:07:42;;;;;;;4.15;1.67;;;;;;;6.77;100.00;100721.22;5057444;28;20036;-65
2023/12/25 03:10:08;;;;;;;6.20;2.92;;;;;;;6.43;100.00;100727.25;5060181;28;20469;-66
2023/12/25 03:12:33;;;;;;;3.55;1.77;;;;;;;6.11;100.00;100722.63;5060415;28;20036;-65
2023/12/25 03:14:59;;;;;;;7.05;2.30;;;;;;;5.90;100.00;100726.75;5058033;28;20028;-65
2023/12/25 03:17:24;;;;;;;6.72;2.08;;;;;;;6.21;100.00;100728.78;5062218;28;20036;-66
2023/12/25 03:19:50;;;;;;;7.32;2.30;;;;;;;6.49;100.00;100729.38;5060807;28;20369;-66
2023/12/25 03:22:15;;;;;;;7.45;2.65;;;;;;;6.81;100.00;100737.38;5073150;28;20508;-66
2023/12/25 03:24:41;;;;;;;9.63;2.50;;;;;;;6.90;100.00;100719.38;5066914;28;20028;-65
2023/12/25 03:27:06;;;;;;;9.27;1.80;;;;;;;6.97;100.00;100728.34;5072137;28;20032;-65
2023/12/25 03:29:32;;;;;;;7.57;2.45;;;;;;;7.02;100.00;100729.78;5064857;28;20405;-65
2023/12/25 03:31:57;;;;;;;6.88;2.22;;;;;;;6.92;100.00;100730.44;5063419;28;20204;-65
2023/12/25 03:34:22;;;;;;;6.50;2.00;;;;;;;6.63;100.00;100731.78;5068838;28;20500;-65
2023/12/25 03:36:48;;;;;;;9.10;2.58;;;;;;;6.43;100.00;100735.84;5065916;28;20031;-65
2023/12/25 03:39:13;;;;;;;6.53;3.15;;;;;;;6.42;100.00;100735.94;5075067;28;20412;-65
2023/12/25 03:41:39;;;;;;;5.53;1.90;;;;;;;6.66;100.00;100739.31;5063400;28;20061;-65
2023/12/25 03:44:04;;;;;;;8.45;2.70;;;;;;;6.74;100.00;100742.16;5066207;28;20024;-66
2023/12/25 03:46:30;;;;;;;7.13;2.67;;;;;;;6.75;100.00;100741.22;5068614;28;20056;-66
2023/12/25 03:48:55;;;;;;;7.75;2.63;;;;;;;6.83;100.00;100741.50;5065218;28;20025;-66
2023/12/25 03:51:21;;;;;;;9.32;2.78;;;;;;;6.88;100.00;100746.34;5061449;28;20028;-66
2023/12/25 03:53:46;;;;;;;6.85;2.70;;;;;;;6.85;100.00;100747.38;5066583;28;20085;-66
2023/12/25 03:56:18;;;;;;;8.15;2.88;;;;;;;6.71;100.00;100754.50;5065790;28;20121;-66
2023/12/25 03:58:44;;;;;;;10.13;2.42;;;;;;;6.43;100.00;100743.59;5065890;28;20052;-66
2023/12/25 04:01:10;;;;;;;7.80;2.85;;;;;;;6.28;100.00;100748.13;5068029;28;20036;-66
2023/12/25 04:03:36;;;;;;;7.88;2.65;;;;;;;6.28;100.00;100748.13;5065612;28;20021;-66
2023/12/25 04:06:01;;;;;;;5.97;2.28;;;;;;;6.44;100.00;100750.44;5066866;28;20077;-66
2023/12/25 04:08:27;;;;;;;4.93;1.77;;;;;;;6.56;100.00;100740.94;5063660;28;20025;-66
2023/12/25 04:10:52;;;;;;;13.48;2.72;;;;;;;6.54;100.00;100743.66;5064634;28;20028;-65
2023/12/25 04:13:18;;;;;;;6.38;2.28;;;;;;;6.52;100.00;100736.94;5066303;28;20101;-66
2023/12/25 04:15:43;;;;;;;8.90;2.55;;;;;;;6.60;100.00;100734.63;5063186;28;20024;-66
2023/12/25 04:18:09;;;;;;;7.28;2.97;;;;;;;6.66;100.00;100744.50;5066571;28;20032;-65
2023/12/25 04:20:34;;;;;;;7.15;2.58;;;;;;;6.77;100.00;100744.53;5062979;28;20044;-66
2023/12/25 04:23:00;;;;;;;9.25;2.58;;;;;;;6.88;100.00;100751.53;5059244;28;20020;-65
2023/12/25 04:25:25;;;;;;;10.23;1.98;;;;;;;6.92;100.00;100743.41;5062957;28;20036;-65
2023/12/25 04:27:51;;;;;;;6.13;1.88;;;;;;;6.96;100.00;100744.84;5068554;28;20024;-65
2023/12/25 04:30:17;;;;;;;8.52;2.42;;;;;;;6.99;100.00;100742.00;5064599;28;20032;-66
2023/12/25 04:32:42;;;;;;;7.32;2.63;;;;;;;6.95;100.00;100750.13;5065947;28;20194;-65
2023/12/25 04:35:08;;;;;;;10.50;2.28;;;;;;;6.89;100.00;100753.16;5066311;28;20432;-66
2023/12/25 04:37:34;;;;;;;8.02;2.10;;;;;;;6.94;100.00;100754.47;5062909;28;21646;-66
2023/12/25 04:39:59;;;;;;;8.70;2.35;;;;;;;7.04;100.00;100761.56;5062732;28;20017;-67
2023/12/25 04:42:24;;;;;;;4.47;2.00;;;;;;;7.07;100.00;100750.97;5079395;28;20055;-65
2023/12/25 04:44:50;;;;;;;7.25;2.85;;;;;;;7.09;100.00;100751.69;5062976;28;20024;-66
2023/12/25 04:47:15;;;;;;;3.53;1.92;;;;;;;7.06;100.00;100738.97;5060877;28;20074;-65
2023/12/25 04:49:41;;;;;;;6.68;2.88;;;;;;;7.02;100.00;100750.50;5065204;28;20442;-66
2023/12/25 04:52:06;;;;;;;5.70;1.70;;;;;;;6.86;100.00;100756.81;5070177;28;20028;-66
2023/12/25 04:54:31;;;;;;;5.25;2.03;;;;;;;6.72;100.00;100754.41;5062942;28;20052;-66
2023/12/25 04:56:57;;;;;;;11.25;2.70;;;;;;;6.61;100.00;100762.16;5069188;28;20036;-65
2023/12/25 04:59:23;;;;;;;4.85;1.98;;;;;;;6.52;100.00;100760.22;5070607;28;20040;-66
2023/12/25 05:01:49;;;;;;;8.98;2.47;;;;;;;6.44;100.00;100753.03;5064240;28;20024;-66
2023/12/25 05:04:15;;;;;;;8.60;2.05;;;;;;;6.37;100.00;100756.97;5062181;28;20389;-66
2023/12/25 05:06:41;;;;;;;4.72;2.17;;;;;;;6.36;100.00;100757.09;5068179;28;20110;-66
2023/12/25 05:09:08;;;;;;;5.97;2.35;;;;;;;6.36;100.00;100751.91;5064624;28;20475;-66
2023/12/25 05:11:34;;;;;;;10.00;2.63;;;;;;;6.33;100.00;100745.19;5058603;28;20033;-66
2023/12/25 05:13:59;;;;;;;4.53;2.03;;;;;;;6.32;100.00;100751.31;5061173;28;20040;-66
2023/12/25 05:16:25;;;;;;;5.10;1.77;;;;;;;6.28;100.00;100765.41;5064895;28;20051;-66
2023/12/25 05:18:50;;;;;;;7.57;2.00;;;;;;;6.23;100.00;100760.56;5065533;28;20055;-66
2023/12/25 05:21:16;;;;;;;6.00;2.20;;;;;;;6.20;100.00;100760.75;5065194;28;20043;-66
2023/12/25 05:23:42;;;;;;;5.20;1.85;;;;;;;6.16;100.00;100764.50;5067268;28;20041;-65
2023/12/25 05:26:07;;;;;;;5.72;1.98;;;;;;;6.13;100.00;100772.50;5071792;28;20040;-67
2023/12/25 05:28:33;;;;;;;5.68;2.40;;;;;;;6.11;100.00;100776.97;5071536;28;20029;-66
2023/12/25 05:30:58;;;;;;;4.03;1.45;;;;;;;6.10;100.00;100783.06;5070119;28;20115;-66
2023/12/25 05:33:23;;;;;;;7.68;2.10;;;;;;;6.11;100.00;100782.13;5074019;28;20055;-66
2023/12/25 05:35:49;;;;;;;7.00;2.13;;;;;;;6.15;100.00;100788.72;5070165;28;20020;-66
2023/12/25 05:38:14;;;;;;;10.45;2.13;;;;;;;6.19;100.00;100784.16;5070100;28;20033;-66
2023/12/25 05:40:40;;;;;;;5.43;2.10;;;;;;;6.23;100.00;100793.34;5068363;28;20033;-67
2023/12/25 05:43:10;;;;;;;8.57;1.77;;;;;;;6.24;100.00;100795.00;5069575;28;21661;-66
2023/12/25 05:45:36;;;;;;;6.28;1.95;;;;;;;6.26;100.00;100795.72;5067190;28;20492;-66
2023/12/25 05:48:01;;;;;;;9.82;1.92;;;;;;;6.31;100.00;100788.47;5069651;28;20041;-66
2023/12/25 05:50:27;;;;;;;8.02;2.65;;;;;;;6.33;100.00;100791.78;5067934;28;20039;-66
2023/12/25 05:52:52;;;;;;;5.20;2.20;;;;;;;6.32;100.00;100788.38;5070096;28;20073;-66
2023/12/25 05:55:18;;;;;;;7.50;2.55;;;;;;;6.33;100.00;100790.00;5067660;28;20045;-66
2023/12/25 05:57:43;;;;;;;9.18;2.95;;;;;;;6.33;100.00;100787.44;5069415;28;20024;-66
2023/12/25 06:00:09;;;;;;;10.73;2.67;;;;;;;6.35;100.00;100789.09;5071228;28;20451;-66
2023/12/25 06:02:35;;;;;;;12.10;3.60;;;;;;;6.36;100.00;100798.50;5068999;28;20040;-66
2023/12/25 06:05:00;;;;;;;13.85;4.45;;;;;;;6.39;100.00;100799.09;5070889;28;20033;-66
2023/12/25 06:07:26;;;;;;;9.23;3.17;;;;;;;6.43;100.00;100785.00;5069980;28;20413;-66
2023/12/25 06:09:51;;;;;;;9.45;3.33;;;;;;;6.49;100.00;100794.09;5072887;28;20048;-65
2023/12/25 06:12:17;;;;;;;9.18;4.07;;;;;;;6.54;100.00;100799.78;5065967;28;20040;-66
2023/12/25 06:14:42;;;;;;;8.05;2.97;;;;;;;6.64;100.00;100795.56;5068003;28;20036;-66
2023/12/25 06:17:07;;;;;;;11.98;3.38;;;;;;;6.68;100.00;100794.41;5066786;28;20503;-66
2023/12/25 06:19:33;;;;;;;10.18;3.30;;;;;;;6.70;100.00;100802.06;5068463;28;20032;-66
2023/12/25 06:21:59;;;;;;;6.53;2.42;;;;;;;6.66;100.00;100801.47;5068548;28;20520;-66
2023/12/25 06:24:24;;;;;;;6.72;3.00;;;;;;;6.64;100.00;100808.50;5066113;28;20043;-66
2023/12/25 06:26:50;;;;;;;6.00;2.70;;;;;;;6.69;100.00;100806.41;5061373;28;20036;-66
2023/12/25 06:29:15;;;;;;;7.60;2.58;;;;;;;6.68;100.00;100799.59;5061829;28;20128;-66
2023/12/25 06:31:45;;;;;;;12.65;3.15;;;;;;;6.66;100.00;100809.22;5068667;28;20036;-66
2023/12/25 06:34:11;;;;;;;9.23;3.00;;;;;;;6.65;100.00;100815.34;5066184;28;20393;-66
2023/12/25 06:36:36;;;;;;;11.75;2.70;;;;;;;6.64;100.00;100808.50;5068027;28;20025;-66
2023/12/25 06:39:02;;;;;;;8.57;2.80;;;;;;;6.64;100.00;100819.69;5069622;28;20063;-65
2023/12/25 06:41:27;;;;;;;8.90;3.38;;;;;;;6.67;100.00;100818.66;5060706;28;20080;-66
2023/12/25 06:43:53;;;;;;;8.68;3.22;;;;;;;6.74;100.00;100819.84;5060115;28;20037;-66
2023/12/25 06:46:18;;;;;;;6.88;2.35;;;;;;;6.78;100.00;100831.66;5063416;28;20039;-66
2023/12/25 06:48:44;;;;;;;14.35;2.88;;;;;;;6.77;100.00;100824.81;5062113;28;20028;-66
2023/12/25 06:51:09;;;;;;;4.95;2.22;;;;;;;6.85;100.00;100816.50;5066761;28;20115;-66
2023/12/25 06:53:35;;;;;;;15.10;4.03;;;;;;;7.03;100.00;100820.34;5066817;28;20035;-67
2023/12/25 06:56:01;;;;;;;11.32;2.72;;;;;;;7.12;100.00;100823.97;5067343;28;20040;-66
2023/12/25 06:58:26;;;;;;;6.22;2.13;;;;;;;7.08;100.00;100823.41;5065711;28;20429;-66
2023/12/25 07:00:52;;;;;;;9.32;2.78;;;;;;;7.03;100.00;100829.88;5065934;28;20060;-66
2023/12/25 07:03:18;;;;;;;8.10;3.28;;;;;;;6.99;100.00;100834.44;5067543;28;20070;-66
2023/12/25 07:05:44;;;;;;;14.07;3.30;;;;;;;6.96;100.00;100835.50;5070208;28;20063;-66
2023/12/25 07:08:09;;;;;;;10.23;2.88;;;;;;;6.94;100.00;100834.78;5068232;28;20062;-66
2023/12/25 07:10:35;;;;;;;11.30;3.78;;;;;;;6.95;100.00;100833.03;5063594;28;20401;-66
2023/12/25 07:13:01;;;;;;;8.35;2.75;;;;;;;6.96;100.00;100832.09;5062927;28;20093;-66
2023/12/25 07:15:28;;;;;;;16.60;3.55;;;;;;;6.98;100.00;100835.38;5054671;28;20036;-66
2023/12/25 07:17:53;;;;;;;9.50;3.63;;;;;;;7.05;100.00;100838.34;5058654;28;20055;-66
2023/12/25 07:20:19;;;;;;;8.57;3.22;;;;;;;7.08;100.00;100844.16;5058477;28;20513;-66
2023/12/25 07:22:44;;;;;;;9.00;3.13;;;;;;;7.11;100.00;100843.06;5058299;28;20078;-65
2023/12/25 07:25:10;;;;;;;8.48;3.03;;;;;;;7.12;100.00;100842.13;5058174;28;20043;-66
2023/12/25 07:27:36;;;;;;;11.43;4.43;;;;;;;7.14;100.00;100842.84;5057851;28;20028;-66
2023/12/25 07:30:02;;;;;;;7.60;3.47;;;;;;;7.22;100.00;100843.94;5059090;28;20125;-66
2023/12/25 07:32:28;;;;;;;9.88;3.80;;;;;;;7.40;100.00;100843.50;5057344;28;20516;-66
2023/12/25 07:34:53;;;;;;;11.20;3.80;;;;;;;7.56;100.00;100833.63;5060722;28;20082;-66
2023/12/25 07:37:19;;;;;;;6.45;3.33;;;;;;;7.63;100.00;100846.00;5059960;28;20168;-66
2023/12/25 07:39:44;;;;;;;7.10;2.75;;;;;;;7.66;100.00;100855.31;5060221;28;20044;-66
2023/12/25 07:42:10;;;;;;;12.80;3.58;;;;;;;7.63;100.00;100851.19;5059567;28;20121;-66
2023/12/25 07:44:41;;;;;;;11.73;4.90;;;;;;;7.66;100.00;100855.31;5058669;28;20080;-66
2023/12/25 07:47:07;;;;;;;10.50;5.00;;;;;;;7.75;100.00;100853.81;5063270;28;20452;-66
2023/12/25 07:49:32;;;;;;;11.50;4.78;;;;;;;7.82;100.00;100850.63;5058297;28;20123;-65
2023/12/25 07:51:58;;;;;;;14.65;5.25;;;;;;;7.87;100.00;100853.69;5057001;28;20028;-66
2023/12/25 07:54:23;;;;;;;12.80;5.18;;;;;;;7.91;100.00;100859.47;5061852;28;20425;-66
2023/12/25 07:56:49;;;;;;;13.70;5.40;;;;;;;7.94;100.00;100854.88;5058345;28;20381;-66
2023/12/25 07:59:14;;;;;;;12.40;4.63;;;;;;;7.97;100.00;100865.03;5055221;28;20037;-66
2023/12/25 08:01:40;;;;;;;13.23;5.35;;;;;;;8.02;100.00;100866.44;5055845;28;20033;-66
2023/12/25 08:04:05;;;;;;;10.32;4.30;;;;;;;8.03;100.00;100862.91;5057315;28;20024;-65
2023/12/25 08:06:31;;;;;;;13.18;4.25;;;;;;;8.06;100.00;100860.88;5055458;28;20385;-66
2023/12/25 08:08:56;;;;;;;15.27;4.82;;;;;;;8.09;100.00;100863.22;5059440;28;20497;-65
2023/12/25 08:11:22;;;;;;;14.00;4.53;;;;;;;8.09;100.00;100871.00;5055886;28;20123;-65
2023/12/25 08:13:47;;;;;;;9.13;3.25;;;;;;;8.18;100.00;100862.50;5059414;28;20488;-66
2023/12/25 08:16:13;;;;;;;8.35;3.13;;;;;;;8.26;100.00;100865.34;5066066;28;20028;-66
2023/12/25 08:18:38;;;;;;;7.88;2.72;;;;;;;8.34;100.00;100877.75;5061924;28;20033;-66
2023/12/25 08:21:04;;;;;;;8.48;2.25;;;;;;;8.46;100.00;100874.22;5066222;28;20485;-65
2023/12/25 08:23:30;;;;;;;5.95;2.10;;;;;;;8.55;100.00;100880.41;5053685;28;20039;-66
2023/12/25 08:25:56;;;;;;;7.25;2.03;;;;;;;8.59;100.00;100885.25;5061376;28;20406;-66
2023/12/25 08:28:21;;;;;;;8.32;2.65;;;;;;;8.63;100.00;100891.03;5067364;28;20028;-65
2023/12/25 08:30:47;;;;;;;7.28;2.20;;;;;;;8.61;100.00;100895.53;5065571;28;20028;-65
2023/12/25 08:33:12;;;;;;;12.95;1.83;;;;;;;8.60;100.00;100893.88;5064555;28;20036;-66
2023/12/25 08:35:37;;;;;;;7.97;1.40;;;;;;;8.57;100.00;100894.94;5064567;28;20043;-66
2023/12/25 08:38:03;;;;;;;8.57;2.35;;;;;;;8.55;100.00;100891.63;5064361;28;20020;-67
2023/12/25 08:40:29;;;;;;;5.53;2.33;;;;;;;8.57;100.00;100901.91;5067281;28;20036;-66
2023/12/25 08:42:54;;;;;;;5.13;1.88;;;;;;;8.53;100.00;100908.28;5063613;28;20032;-67
2023/12/25 08:45:20;;;;;;;7.68;2.65;;;;;;;8.50;100.00;100908.56;5065622;28;20546;-66
2023/12/25 08:47:45;;;;;;;6.72;2.55;;;;;;;8.54;100.00;100912.53;5062329;28;20028;-66
2023/12/25 08:50:11;;;;;;;7.07;1.42;;;;;;;8.54;100.00;100910.75;5064576;28;20021;-66
2023/12/25 08:52:36;;;;;;;13.57;3.15;;;;;;;8.53;100.00;100913.47;5058742;28;20025;-66
2023/12/25 08:55:02;;;;;;;9.32;2.25;;;;;;;8.50;100.00;100908.56;5072647;28;20048;-65
2023/12/25 08:57:29;;;;;;;10.95;2.75;;;;;;;8.55;100.00;100917.59;5064362;28;20044;-73
2023/12/25 08:59:55;;;;;;;8.93;2.67;;;;;;;8.62;100.00;100917.94;5066492;28;20029;-73
2023/12/25 09:02:20;;;;;;;9.50;2.72;;;;;;;8.69;100.00;100921.72;5064595;28;20508;-73
2023/12/25 09:04:48;;;;;;;9.93;2.15;;;;;;;8.76;100.00;100915.09;5065052;28;20037;-73
2023/12/25 09:07:15;;;;;;;13.20;3.75;;;;;;;8.84;100.00;100927.47;5063727;28;20028;-74
2023/12/25 09:09:40;;;;;;;8.02;2.85;;;;;;;8.83;100.00;100928.44;5062598;28;20116;-73
2023/12/25 09:12:06;;;;;;;6.85;2.22;;;;;;;8.78;100.00;100927.97;5068244;28;20078;-73
2023/12/25 09:14:31;;;;;;;5.13;2.58;;;;;;;8.82;100.00;100934.56;5070224;28;20032;-73
2023/12/25 09:16:57;;;;;;;7.32;2.85;;;;;;;8.85;100.00;100935.16;5069033;28;20024;-73
2023/12/25 09:19:22;;;;;;;7.88;2.42;;;;;;;8.85;100.00;100937.75;5067562;28;20644;-73
2023/12/25 09:21:48;;;;;;;6.38;2.05;;;;;;;8.81;100.00;100938.94;5066737;28;20031;-72
2023/12/25 09:24:13;;;;;;;8.63;2.65;;;;;;;8.90;100.00;100937.38;5064875;28;20551;-73
2023/12/25 09:26:39;;;;;;;7.30;2.78;;;;;;;8.97;100.00;100943.75;5061934;28;20033;-73
2023/12/25 09:29:04;;;;;;;6.25;2.05;;;;;;;8.99;100.00;100944.44;5070950;28;20039;-73
2023/12/25 09:31:30;;;;;;;9.77;2.53;;;;;;;9.03;100.00;100945.00;5066058;28;20039;-73
2023/12/25 09:33:55;;;;;;;10.15;2.60;;;;;;;8.99;100.00;100940.06;5064940;28;20056;-74
2023/12/25 09:36:22;;;;;;;7.35;2.65;;;;;;;9.00;100.00;100946.09;5055570;28;20036;-73
2023/12/25 09:38:48;;;;;;;6.28;3.05;;;;;;;8.99;100.00;100947.84;5062501;28;20078;-73
2023/12/25 09:41:14;;;;;;;8.43;4.00;;;;;;;9.04;100.00;100944.06;5062074;28;20555;-73
2023/12/25 09:43:45;;;;;;;12.10;4.70;;;;;;;9.06;99.78;100943.00;5062204;28;20440;-73
2023/12/25 09:46:11;;;;;;;14.80;4.68;;;;;;;9.13;100.00;100948.53;5066366;28;20036;-73
2023/12/25 09:48:38;;;;;;;12.77;4.40;;;;;;;9.20;100.00;100945.31;5065912;28;20028;-73
2023/12/25 09:51:05;;;;;;;8.13;3.83;;;;;;;9.31;100.00;100944.44;5060779;28;20047;-73
2023/12/25 09:53:30;;;;;;;9.15;4.25;;;;;;;9.36;100.00;100952.72;5059208;28;20044;-67
2023/12/25 09:55:58;;;;;;;16.42;7.38;;;;;;;9.34;100.00;100949.41;5060815;28;20040;-74
2023/12/25 09:58:23;;;;;;;12.70;5.30;;;;;;;9.35;100.00;100951.06;5060077;28;20024;-74
2023/12/25 10:00:49;;;;;;;9.80;4.80;;;;;;;9.36;100.00;100944.09;5064867;28;20527;-72
2023/12/25 10:03:17;;;;;;;14.55;5.15;;;;;;;9.46;100.00;100942.34;5061755;28;20036;-73
2023/12/25 10:05:43;;;;;;;12.27;4.72;;;;;;;9.56;100.00;100949.28;5066335;28;20039;-72
2023/12/25 10:08:09;;;;;;;6.88;3.15;;;;;;;9.51;100.00;100954.03;5065787;28;20032;-69
2023/12/25 10:10:36;;;;;;;7.95;3.28;;;;;;;9.55;100.00;100946.81;5066953;28;20043;-69
2023/12/25 10:13:01;;;;;;;9.48;2.78;;;;;;;9.51;100.00;100948.84;5070873;28;20043;-69
2023/12/25 10:15:26;;;;;;;8.70;3.47;;;;;;;9.44;99.40;100947.72;5068663;28;20020;-69
2023/12/25 10:18:05;;;;;;;10.05;3.25;;;;;;;9.41;99.23;100937.56;5066931;28;20021;-69
2023/12/25 10:20:31;;;;;;;10.82;3.08;;;;;;;9.35;99.83;100937.22;5069440;28;20028;-69
2023/12/25 10:22:57;;;;;;;9.68;2.88;;;;;;;9.29;100.00;100930.75;5066454;28;20028;-68
2023/12/25 10:25:28;;;;;;;7.30;2.25;;;;;;;9.32;100.00;100933.94;5065195;28;20094;-69
2023/12/25 10:27:53;;;;;;;9.50;2.85;;;;;;;9.31;100.00;100934.88;5068406;28;20528;-68
2023/12/25 10:30:21;;;;;;;12.13;3.35;;;;;;;9.29;100.00;100941.16;5063497;28;20025;-70
2023/12/25 10:32:48;;;;;;;7.55;2.53;;;;;;;9.32;100.00;100931.31;5071573;28;20059;-70
2023/12/25 10:35:14;;;;;;;7.45;2.00;;;;;;;9.36;100.00;100938.88;5063642;28;20081;-70
2023/12/25 10:37:41;;;;;;;5.50;2.83;;;;;;;9.38;100.00;100937.81;5061896;28;20060;-70
2023/12/25 10:40:23;;;;;;;8.75;2.65;;;;;;;9.40;100.00;100943.72;5065219;28;20021;-70
2023/12/25 10:42:51;;;;;;;10.25;2.35;;;;;;;9.41;100.00;100942.75;5062787;28;20037;-70
2023/12/25 10:45:22;;;;;;;9.45;2.67;;;;;;;9.44;100.00;100941.69;5067891;28;20048;-70
2023/12/25 10:47:59;;;;;;;5.65;2.70;;;;;;;9.38;99.80;100932.59;5064183;28;20040;-70
2023/12/25 10:50:26;;;;;;;9.85;3.63;;;;;;;9.35;99.89;100932.03;5062600;28;20032;-70
2023/12/25 10:53:05;;;;;;;7.90;3.10;;;;;;;9.37;100.00;100928.34;5064719;28;20028;-70
2023/12/25 10:55:44;;;;;;;8.57;3.08;;;;;;;9.45;100.00;100927.72;5065002;28;20947;-69
2023/12/25 10:58:12;;;;;;;8.68;3.42;;;;;;;9.45;99.75;100930.31;5067973;28;20024;-70
2023/12/25 11:00:56;;;;;;;6.50;2.35;;;;;;;9.46;99.53;100929.34;5060871;28;20120;-70
2023/12/25 11:03:22;;;;;;;5.32;2.70;;;;;;;9.40;99.94;100920.31;5063924;28;20024;-70
2023/12/25 11:05:48;;;;;;;15.20;3.03;;;;;;;9.44;100.00;100926.09;5055061;28;20489;-62
2023/12/25 11:08:17;;;;;;;7.20;3.13;;;;;;;9.53;100.00;100920.91;5066031;28;20040;-63
2023/12/25 11:10:43;;;;;;;8.90;3.15;;;;;;;9.62;100.00;100919.34;5060648;28;20359;-62
2023/12/25 11:13:09;;;;;;;5.43;3.00;;;;;;;9.62;100.00;100920.16;5063080;28;20035;-62
2023/12/25 11:15:35;;;;;;;10.30;3.88;;;;;;;9.61;100.00;100909.88;5060652;28;20028;-62
2023/12/25 11:18:01;;;;;;;12.60;5.40;;;;;;;9.64;100.00;100917.44;5069270;28;20028;-62